aviador You're here:

KINT Decoded Metar

WINSTON-SALEM in NC, USA
Report Time2017-12-16 02:54:00
UTC Time2017-12-16 03:41:08
Flight Rules vfr VFR
Wind330° at 06 kt
W.Decomp.*RWY 33: 6.0 kt HW 0.7 kt RCW
RWY 04: 2.7 kt HW 5.3 kt LCW
W.Rank330° ranks 9
Current wind is below 330° avg. (7.2)
Visibility9999 m
Phenomena:N/A
Clouds:N/A
Expected CloudBase > 3,200 ft AGL from Temp-Dew spread
CeilingNone
Temp01°C (ISA -12)
Dew Point-7°C (56% RH)
AAT-3.9°C
QNH1019 hPa
Density Alt-666 ft
Elevation955 ft
Report Wrong Elevation
Raw Report
KINT 160254Z AUTO 33006KT 10SM CLR 01/M07 A3009 RMK AO2 SLP196
T00111067 51020=

Extra information for KINT:More info

Metar Taf Metar & Taf Last 4 Metars F.Rules Stats Wind Profile Meteogram Temp Stats Airport Information Weather charts Add Link Nearby VenuesMetar ALERT Operation Metar Decoded Social comments

AIRNAV info for KINT